sensor_id;sensor_type;location;lat;lon;timestamp;pressure;altitude;pressure_sealevel;temperature;humidity
11038;BME280;5572;49.540;11.932;2023-09-30T00:01:50;96274.28;;;15.65;100.00
11038;BME280;5572;49.540;11.932;2023-09-30T00:04:18;96270.97;;;15.51;100.00
11038;BME280;5572;49.540;11.932;2023-09-30T00:06:46;96261.38;;;15.45;100.00
11038;BME280;5572;49.540;11.932;2023-09-30T00:09:16;96262.66;;;15.48;100.00
11038;BME280;5572;49.540;11.932;2023-09-30T00:11:45;96258.00;;;15.48;100.00
11038;BME280;5572;49.540;11.932;2023-09-30T00:14:13;96264.88;;;15.54;100.00
11038;BME280;5572;49.540;11.932;2023-09-30T00:16:43;96255.72;;;15.58;100.00
11038;BME280;5572;49.540;11.932;2023-09-30T00:19:11;96254.63;;;15.51;100.00
11038;BME280;5572;49.540;11.932;2023-09-30T00:21:39;96257.06;;;15.44;100.00
11038;BME280;5572;49.540;11.932;2023-09-30T00:24:07;96259.94;;;15.48;100.00
11038;BME280;5572;49.540;11.932;2023-09-30T00:26:37;96245.47;;;15.55;100.00
11038;BME280;5572;49.540;11.932;2023-09-30T00:29:05;96240.47;;;15.66;100.00
11038;BME280;5572;49.540;11.932;2023-09-30T00:31:32;96238.13;;;15.76;100.00
11038;BME280;5572;49.540;11.932;2023-09-30T00:34:00;96234.84;;;15.62;100.00
11038;BME280;5572;49.540;11.932;2023-09-30T00:36:29;96230.84;;;15.60;100.00
11038;BME280;5572;49.540;11.932;2023-09-30T00:38:57;96236.44;;;15.63;100.00
11038;BME280;5572;49.540;11.932;2023-09-30T00:41:25;96246.09;;;15.52;100.00
11038;BME280;5572;49.540;11.932;2023-09-30T00:43:55;96239.16;;;15.63;100.00
11038;BME280;5572;49.540;11.932;2023-09-30T00:46:26;96253.63;;;15.55;100.00
11038;BME280;5572;49.540;11.932;2023-09-30T00:48:58;96256.63;;;15.62;100.00
11038;BME280;5572;49.540;11.932;2023-09-30T00:51:27;96261.69;;;15.44;100.00
11038;BME280;5572;49.540;11.932;2023-09-30T00:53:57;96272.31;;;15.37;100.00
11038;BME280;5572;49.540;11.932;2023-09-30T00:56:28;96260.91;;;15.43;100.00
11038;BME280;5572;49.540;11.932;2023-09-30T00:58:59;96247.72;;;15.53;100.00
11038;BME280;5572;49.540;11.932;2023-09-30T01:01:27;96242.88;;;15.59;100.00
11038;BME280;5572;49.540;11.932;2023-09-30T01:03:55;96239.41;;;15.50;100.00
11038;BME280;5572;49.540;11.932;2023-09-30T01:06:25;96243.84;;;15.63;100.00
11038;BME280;5572;49.540;11.932;2023-09-30T06:21:55;95978.66;;;14.89;100.00
11038;BME280;5572;49.540;11.932;2023-09-30T06:24:23;95980.19;;;14.99;100.00
11038;BME280;5572;49.540;11.932;2023-09-30T06:26:51;95962.38;;;14.81;100.00
11038;BME280;5572;49.540;11.932;2023-09-30T06:29:18;95890.22;;;15.16;100.00
11038;BME280;5572;49.540;11.932;2023-09-30T06:31:47;95837.16;;;15.22;100.00
11038;BME280;5572;49.540;11.932;2023-09-30T06:34:16;95818.78;;;15.19;100.00
11038;BME280;5572;49.540;11.932;2023-09-30T06:36:43;95764.59;;;15.38;100.00
11038;BME280;5572;49.540;11.932;2023-09-30T06:39:13;95763.38;;;15.15;100.00
11038;BME280;5572;49.540;11.932;2023-09-30T06:41:41;95752.56;;;15.27;100.00
11038;BME280;5572;49.540;11.932;2023-09-30T06:44:10;95760.94;;;15.22;100.00
11038;BME280;5572;49.540;11.932;2023-09-30T06:46:38;95760.53;;;15.32;100.00
11038;BME280;5572;49.540;11.932;2023-09-30T06:49:07;95776.41;;;15.30;100.00
11038;BME280;5572;49.540;11.932;2023-09-30T06:51:36;95770.97;;;15.42;100.00
11038;BME280;5572;49.540;11.932;2023-09-30T06:54:05;95797.88;;;15.11;100.00
11038;BME280;5572;49.540;11.932;2023-09-30T06:56:35;95827.84;;;14.90;100.00
11038;BME280;5572;49.540;11.932;2023-09-30T06:59:03;95830.97;;;15.01;100.00
11038;BME280;5572;49.540;11.932;2023-09-30T07:01:32;95831.25;;;15.20;100.00
11038;BME280;5572;49.540;11.932;2023-09-30T07:06:47;95854.22;;;15.10;100.00
11038;BME280;5572;49.540;11.932;2023-09-30T07:24:45;95902.94;;;15.24;100.00
11038;BME280;5572;49.540;11.932;2023-09-30T07:27:12;95907.94;;;15.42;100.00
11038;BME280;5572;49.540;11.932;2023-09-30T08:05:53;95949.63;;;16.55;100.00
11038;BME280;5572;49.540;11.932;2023-09-30T08:08:20;95951.88;;;16.53;100.00
11038;BME280;5572;49.540;11.932;2023-09-30T08:10:47;95958.63;;;16.55;100.00
11038;BME280;5572;49.540;11.932;2023-09-30T08:13:14;95958.47;;;16.52;100.00
11038;BME280;5572;49.540;11.932;2023-09-30T08:15:42;96008.00;;;15.86;100.00
11038;BME280;5572;49.540;11.932;2023-09-30T08:18:09;95993.19;;;16.07;100.00
11038;BME280;5572;49.540;11.932;2023-09-30T08:20:35;95985.50;;;16.21;100.00
11038;BME280;5572;49.540;11.932;2023-09-30T08:23:04;95988.47;;;16.28;100.00
11038;BME280;5572;49.540;11.932;2023-09-30T08:25:30;96006.69;;;16.04;100.00
11038;BME280;5572;49.540;11.932;2023-09-30T08:27:57;96040.78;;;15.77;100.00
11038;BME280;5572;49.540;11.932;2023-09-30T08:30:24;96031.66;;;15.94;100.00
11038;BME280;5572;49.540;11.932;2023-09-30T08:32:51;96030.06;;;15.93;100.00
11038;BME280;5572;49.540;11.932;2023-09-30T08:35:17;96014.59;;;16.29;100.00
11038;BME280;5572;49.540;11.932;2023-09-30T08:37:44;96022.66;;;16.26;100.00
11038;BME280;5572;49.540;11.932;2023-09-30T08:40:12;96022.84;;;16.53;100.00
11038;BME280;5572;49.540;11.932;2023-09-30T08:42:39;96011.91;;;16.53;100.00
11038;BME280;5572;49.540;11.932;2023-09-30T08:45:10;96006.59;;;16.68;100.00
11038;BME280;5572;49.540;11.932;2023-09-30T08:47:36;96031.81;;;16.41;100.00
11038;BME280;5572;49.540;11.932;2023-09-30T08:50:06;95998.75;;;16.79;100.00
11038;BME280;5572;49.540;11.932;2023-09-30T08:52:35;95992.84;;;16.89;100.00
11038;BME280;5572;49.540;11.932;2023-09-30T08:55:04;96023.97;;;16.64;100.00
11038;BME280;5572;49.540;11.932;2023-09-30T08:57:36;96024.66;;;16.73;100.00
11038;BME280;5572;49.540;11.932;2023-09-30T09:00:05;96060.25;;;16.20;100.00
11038;BME280;5572;49.540;11.932;2023-09-30T09:02:34;96064.78;;;16.16;100.00
11038;BME280;5572;49.540;11.932;2023-09-30T09:05:01;96060.38;;;16.24;100.00
11038;BME280;5572;49.540;11.932;2023-09-30T09:07:28;96073.63;;;16.13;100.00
11038;BME280;5572;49.540;11.932;2023-09-30T09:10:06;96063.91;;;16.24;100.00
11038;BME280;5572;49.540;11.932;2023-09-30T09:12:35;96045.38;;;16.62;100.00
11038;BME280;5572;49.540;11.932;2023-09-30T09:15:03;96061.03;;;16.41;100.00
11038;BME280;5572;49.540;11.932;2023-09-30T09:17:41;96069.47;;;16.48;100.00
11038;BME280;5572;49.540;11.932;2023-09-30T09:20:09;96063.00;;;16.64;100.00
11038;BME280;5572;49.540;11.932;2023-09-30T09:22:38;96090.81;;;16.46;100.00
11038;BME280;5572;49.540;11.932;2023-09-30T09:25:06;96090.19;;;16.61;100.00
11038;BME280;5572;49.540;11.932;2023-09-30T09:27:35;96111.56;;;16.06;100.00
11038;BME280;5572;49.540;11.932;2023-09-30T09:30:15;96100.47;;;16.11;100.00
11038;BME280;5572;49.540;11.932;2023-09-30T09:32:52;96054.72;;;16.85;100.00
11038;BME280;5572;49.540;11.932;2023-09-30T09:35:20;96013.75;;;17.72;100.00
11038;BME280;5572;49.540;11.932;2023-09-30T09:37:56;96003.94;;;17.98;100.00
11038;BME280;5572;49.540;11.932;2023-09-30T09:40:24;96014.06;;;17.98;100.00
11038;BME280;5572;49.540;11.932;2023-09-30T09:42:53;95972.75;;;18.92;100.00
11038;BME280;5572;49.540;11.932;2023-09-30T09:45:21;96024.00;;;18.45;100.00
11038;BME280;5572;49.540;11.932;2023-09-30T09:47:49;96041.66;;;18.47;100.00
11038;BME280;5572;49.540;11.932;2023-09-30T09:50:17;96041.75;;;18.82;100.00
11038;BME280;5572;49.540;11.932;2023-09-30T09:52:47;96103.31;;;18.57;100.00
11038;BME280;5572;49.540;11.932;2023-09-30T09:55:15;96169.88;;;17.82;100.00
11038;BME280;5572;49.540;11.932;2023-09-30T09:57:43;96146.94;;;18.11;100.00
11038;BME280;5572;49.540;11.932;2023-09-30T10:00:12;96093.56;;;19.17;100.00
11038;BME280;5572;49.540;11.932;2023-09-30T10:02:40;96120.25;;;19.51;100.00
11038;BME280;5572;49.540;11.932;2023-09-30T10:05:08;96189.66;;;19.24;100.00
11038;BME280;5572;49.540;11.932;2023-09-30T10:07:39;96219.03;;;19.55;100.00
11038;BME280;5572;49.540;11.932;2023-09-30T10:10:12;96250.97;;;19.93;100.00
11038;BME280;5572;49.540;11.932;2023-09-30T10:12:40;96210.00;;;19.23;100.00
11038;BME280;5572;49.540;11.932;2023-09-30T10:15:38;96217.50;;;19.11;100.00
11038;BME280;5572;49.540;11.932;2023-09-30T10:18:08;96278.94;;;17.96;100.00
11038;BME280;5572;49.540;11.932;2023-09-30T10:20:37;96210.09;;;18.84;100.00
11038;BME280;5572;49.540;11.932;2023-09-30T10:23:23;96269.94;;;18.31;100.00
11038;BME280;5572;49.540;11.932;2023-09-30T10:25:52;96265.03;;;18.36;100.00
11038;BME280;5572;49.540;11.932;2023-09-30T10:28:36;96256.59;;;18.69;100.00
11038;BME280;5572;49.540;11.932;2023-09-30T10:31:14;96237.34;;;19.08;100.00
11038;BME280;5572;49.540;11.932;2023-09-30T10:34:17;96269.31;;;19.16;100.00
11038;BME280;5572;49.540;11.932;2023-09-30T10:36:46;96285.44;;;19.33;100.00
11038;BME280;5572;49.540;11.932;2023-09-30T10:39:14;96340.91;;;18.75;100.00
11038;BME280;5572;49.540;11.932;2023-09-30T10:41:49;96334.94;;;18.85;100.00
11038;BME280;5572;49.540;11.932;2023-09-30T10:44:35;96336.75;;;19.48;100.00
11038;BME280;5572;49.540;11.932;2023-09-30T10:47:37;96389.50;;;19.29;100.00
11038;BME280;5572;49.540;11.932;2023-09-30T10:53:08;96442.44;;;19.45;100.00
11038;BME280;5572;49.540;11.932;2023-09-30T10:55:35;96461.84;;;19.13;100.00
11038;BME280;5572;49.540;11.932;2023-09-30T10:58:03;96497.56;;;18.93;100.00
11038;BME280;5572;49.540;11.932;2023-09-30T11:00:29;96515.38;;;18.99;100.00
11038;BME280;5572;49.540;11.932;2023-09-30T11:02:57;96546.41;;;19.02;100.00
11038;BME280;5572;49.540;11.932;2023-09-30T11:05:24;96572.59;;;19.12;100.00
11038;BME280;5572;49.540;11.932;2023-09-30T11:07:51;96535.19;;;19.55;100.00
11038;BME280;5572;49.540;11.932;2023-09-30T11:10:19;96542.66;;;18.95;100.00
11038;BME280;5572;49.540;11.932;2023-09-30T11:12:54;96485.94;;;19.86;100.00
11038;BME280;5572;49.540;11.932;2023-09-30T11:15:22;96540.47;;;19.48;100.00
11038;BME280;5572;49.540;11.932;2023-09-30T11:17:48;96537.00;;;19.63;100.00
11038;BME280;5572;49.540;11.932;2023-09-30T11:20:17;96518.38;;;20.23;100.00
11038;BME280;5572;49.540;11.932;2023-09-30T11:22:44;96565.53;;;19.74;100.00
11038;BME280;5572;49.540;11.932;2023-09-30T11:25:16;96556.53;;;20.56;100.00
11038;BME280;5572;49.540;11.932;2023-09-30T11:27:43;96572.28;;;21.51;100.00
11038;BME280;5572;49.540;11.932;2023-09-30T11:30:11;96649.50;;;20.42;100.00
11038;BME280;5572;49.540;11.932;2023-09-30T11:32:38;96623.09;;;21.07;100.00
11038;BME280;5572;49.540;11.932;2023-09-30T11:35:08;96683.69;;;20.56;100.00
11038;BME280;5572;49.540;11.932;2023-09-30T11:37:37;96698.34;;;20.76;100.00
11038;BME280;5572;49.540;11.932;2023-09-30T11:40:13;96669.31;;;20.63;100.00
11038;BME280;5572;49.540;11.932;2023-09-30T11:42:40;96688.81;;;20.58;100.00
11038;BME280;5572;49.540;11.932;2023-09-30T11:45:19;96698.94;;;20.81;100.00
11038;BME280;5572;49.540;11.932;2023-09-30T11:47:46;96728.25;;;20.38;100.00
11038;BME280;5572;49.540;11.932;2023-09-30T11:50:13;96750.16;;;20.10;100.00
11038;BME280;5572;49.540;11.932;2023-09-30T11:52:45;96739.94;;;20.35;100.00
11038;BME280;5572;49.540;11.932;2023-09-30T11:55:12;96737.97;;;20.86;100.00
11038;BME280;5572;49.540;11.932;2023-09-30T11:57:41;96759.41;;;20.81;100.00
11038;BME280;5572;49.540;11.932;2023-09-30T12:00:09;96785.59;;;20.90;100.00
11038;BME280;5572;49.540;11.932;2023-09-30T12:02:39;96857.66;;;20.60;100.00
11038;BME280;5572;49.540;11.932;2023-09-30T12:05:06;96863.59;;;21.13;100.00
11038;BME280;5572;49.540;11.932;2023-09-30T12:07:37;96947.78;;;20.10;100.00
11038;BME280;5572;49.540;11.932;2023-09-30T12:10:05;96934.22;;;20.62;100.00
11038;BME280;5572;49.540;11.932;2023-09-30T12:12:32;96980.88;;;20.26;100.00
11038;BME280;5572;49.540;11.932;2023-09-30T12:14:59;96978.88;;;20.71;100.00
11038;BME280;5572;49.540;11.932;2023-09-30T12:17:25;97021.44;;;20.41;100.00
11038;BME280;5572;49.540;11.932;2023-09-30T12:19:52;97046.63;;;19.90;100.00
11038;BME280;5572;49.540;11.932;2023-09-30T12:22:18;97019.75;;;20.72;100.00
11038;BME280;5572;49.540;11.932;2023-09-30T12:24:45;97018.97;;;20.83;100.00
11038;BME280;5572;49.540;11.932;2023-09-30T12:27:14;97047.19;;;20.48;100.00
11038;BME280;5572;49.540;11.932;2023-09-30T12:29:42;97081.97;;;20.12;100.00
11038;BME280;5572;49.540;11.932;2023-09-30T12:32:09;97074.16;;;20.34;100.00
11038;BME280;5572;49.540;11.932;2023-09-30T12:34:35;97094.91;;;19.91;100.00
11038;BME280;5572;49.540;11.932;2023-09-30T12:37:02;97075.06;;;20.71;100.00
11038;BME280;5572;49.540;11.932;2023-09-30T12:39:29;97075.06;;;20.71;100.00
11038;BME280;5572;49.540;11.932;2023-09-30T12:41:58;97131.59;;;19.29;100.00
11038;BME280;5572;49.540;11.932;2023-09-30T12:44:26;97095.28;;;19.81;100.00
11038;BME280;5572;49.540;11.932;2023-09-30T12:46:53;97116.78;;;19.79;100.00
11038;BME280;5572;49.540;11.932;2023-09-30T12:49:20;97068.31;;;20.36;100.00
11038;BME280;5572;49.540;11.932;2023-09-30T12:51:47;97085.53;;;20.12;100.00
11038;BME280;5572;49.540;11.932;2023-09-30T12:54:13;97146.44;;;18.91;100.00
11038;BME280;5572;49.540;11.932;2023-09-30T12:56:43;97140.88;;;19.07;100.00
11038;BME280;5572;49.540;11.932;2023-09-30T12:59:10;97114.63;;;19.85;100.00
11038;BME280;5572;49.540;11.932;2023-09-30T13:01:38;97125.06;;;19.71;100.00
11038;BME280;5572;49.540;11.932;2023-09-30T13:04:05;97109.28;;;20.29;100.00
11038;BME280;5572;49.540;11.932;2023-09-30T13:06:33;97126.34;;;20.14;100.00
11038;BME280;5572;49.540;11.932;2023-09-30T13:09:00;97138.47;;;19.92;100.00
11038;BME280;5572;49.540;11.932;2023-09-30T13:11:29;97140.00;;;19.82;100.00
11038;BME280;5572;49.540;11.932;2023-09-30T13:13:55;97143.31;;;19.67;100.00
11038;BME280;5572;49.540;11.932;2023-09-30T13:16:22;97163.06;;;19.60;100.00
11038;BME280;5572;49.540;11.932;2023-09-30T13:18:51;97165.63;;;19.57;100.00
11038;BME280;5572;49.540;11.932;2023-09-30T13:21:18;97181.63;;;19.09;100.00
11038;BME280;5572;49.540;11.932;2023-09-30T13:23:44;97169.94;;;19.37;100.00
11038;BME280;5572;49.540;11.932;2023-09-30T13:26:11;97132.44;;;20.40;100.00
11038;BME280;5572;49.540;11.932;2023-09-30T13:28:38;97118.16;;;20.79;100.00
11038;BME280;5572;49.540;11.932;2023-09-30T13:31:05;97151.63;;;21.04;100.00
11038;BME280;5572;49.540;11.932;2023-09-30T13:33:32;97176.81;;;20.42;100.00
11038;BME280;5572;49.540;11.932;2023-09-30T13:36:00;97200.75;;;20.41;100.00
11038;BME280;5572;49.540;11.932;2023-09-30T13:38:27;97216.28;;;20.17;100.00
11038;BME280;5572;49.540;11.932;2023-09-30T13:40:55;97231.38;;;20.11;100.00
11038;BME280;5572;49.540;11.932;2023-09-30T13:43:21;97212.88;;;20.40;100.00
11038;BME280;5572;49.540;11.932;2023-09-30T13:45:48;97244.00;;;19.66;100.00
11038;BME280;5572;49.540;11.932;2023-09-30T13:48:15;97260.25;;;19.42;100.00
11038;BME280;5572;49.540;11.932;2023-09-30T13:50:42;97273.44;;;19.11;100.00
11038;BME280;5572;49.540;11.932;2023-09-30T13:53:10;97255.03;;;19.12;100.00
11038;BME280;5572;49.540;11.932;2023-09-30T13:55:37;97251.94;;;19.13;100.00
11038;BME280;5572;49.540;11.932;2023-09-30T13:58:04;97250.00;;;19.22;100.00
11038;BME280;5572;49.540;11.932;2023-09-30T14:00:31;97234.25;;;19.48;100.00
11038;BME280;5572;49.540;11.932;2023-09-30T14:02:59;97265.38;;;18.73;100.00
11038;BME280;5572;49.540;11.932;2023-09-30T14:05:26;97240.97;;;19.30;100.00
11038;BME280;5572;49.540;11.932;2023-09-30T14:07:52;97219.94;;;19.72;100.00
11038;BME280;5572;49.540;11.932;2023-09-30T14:10:20;97240.69;;;19.52;100.00
11038;BME280;5572;49.540;11.932;2023-09-30T14:12:47;97250.50;;;19.16;100.00
11038;BME280;5572;49.540;11.932;2023-09-30T14:15:14;97252.44;;;18.99;100.00
11038;BME280;5572;49.540;11.932;2023-09-30T14:17:40;97262.00;;;18.84;100.00
11038;BME280;5572;49.540;11.932;2023-09-30T14:20:08;97240.19;;;19.21;100.00
11038;BME280;5572;49.540;11.932;2023-09-30T14:22:35;97229.56;;;19.11;100.00
11038;BME280;5572;49.540;11.932;2023-09-30T14:25:02;97226.97;;;19.06;100.00
11038;BME280;5572;49.540;11.932;2023-09-30T14:27:30;97198.78;;;19.43;100.00
11038;BME280;5572;49.540;11.932;2023-09-30T18:44:45;96560.19;;;11.90;100.00
11038;BME280;5572;49.540;11.932;2023-09-30T18:47:13;96565.09;;;11.88;100.00
11038;BME280;5572;49.540;11.932;2023-09-30T18:49:41;96561.59;;;11.87;100.00
11038;BME280;5572;49.540;11.932;2023-09-30T18:52:09;96577.59;;;11.84;100.00
11038;BME280;5572;49.540;11.932;2023-09-30T18:54:36;96573.31;;;11.83;100.00
11038;BME280;5572;49.540;11.932;2023-09-30T18:57:04;96568.75;;;11.78;100.00
11038;BME280;5572;49.540;11.932;2023-09-30T20:22:30;96644.28;;;10.59;100.00
11038;BME280;5572;49.540;11.932;2023-09-30T20:24:56;96646.16;;;10.59;100.00
11038;BME280;5572;49.540;11.932;2023-09-30T20:27:26;96652.19;;;10.51;100.00
11038;BME280;5572;49.540;11.932;2023-09-30T20:29:53;96661.97;;;10.47;100.00
11038;BME280;5572;49.540;11.932;2023-09-30T20:32:20;96656.28;;;10.48;100.00
11038;BME280;5572;49.540;11.932;2023-09-30T20:34:46;96669.38;;;10.36;100.00
11038;BME280;5572;49.540;11.932;2023-09-30T20:37:13;96663.44;;;10.34;100.00
11038;BME280;5572;49.540;11.932;2023-09-30T20:39:41;96684.66;;;10.23;100.00
11038;BME280;5572;49.540;11.932;2023-09-30T20:42:07;96678.97;;;10.19;100.00
11038;BME280;5572;49.540;11.932;2023-09-30T20:44:35;96692.22;;;10.21;100.00
11038;BME280;5572;49.540;11.932;2023-09-30T20:47:02;96686.50;;;10.27;100.00
11038;BME280;5572;49.540;11.932;2023-09-30T20:49:28;96682.72;;;10.28;100.00
11038;BME280;5572;49.540;11.932;2023-09-30T20:51:55;96689.13;;;10.32;100.00
11038;BME280;5572;49.540;11.932;2023-09-30T20:54:22;96704.03;;;10.29;100.00
11038;BME280;5572;49.540;11.932;2023-09-30T20:56:50;96705.66;;;10.26;100.00
11038;BME280;5572;49.540;11.932;2023-09-30T20:59:19;96721.41;;;10.19;100.00
11038;BME280;5572;49.540;11.932;2023-09-30T21:01:47;96728.41;;;10.20;100.00
11038;BME280;5572;49.540;11.932;2023-09-30T21:04:14;96727.88;;;10.18;100.00
11038;BME280;5572;49.540;11.932;2023-09-30T21:06:41;96729.03;;;10.12;100.00
11038;BME280;5572;49.540;11.932;2023-09-30T21:09:09;96736.53;;;10.15;100.00
11038;BME280;5572;49.540;11.932;2023-09-30T21:11:38;96744.25;;;9.93;100.00
11038;BME280;5572;49.540;11.932;2023-09-30T21:14:05;96728.94;;;9.83;100.00
11038;BME280;5572;49.540;11.932;2023-09-30T21:16:32;96735.16;;;9.79;100.00
11038;BME280;5572;49.540;11.932;2023-09-30T21:19:02;96727.56;;;9.86;100.00
11038;BME280;5572;49.540;11.932;2023-09-30T21:21:28;96730.59;;;9.74;100.00
11038;BME280;5572;49.540;11.932;2023-09-30T21:23:55;96735.41;;;9.82;100.00
11038;BME280;5572;49.540;11.932;2023-09-30T21:26:21;96725.88;;;9.95;100.00
11038;BME280;5572;49.540;11.932;2023-09-30T21:28:48;96720.84;;;9.78;100.00
11038;BME280;5572;49.540;11.932;2023-09-30T21:31:16;96720.06;;;9.78;100.00
11038;BME280;5572;49.540;11.932;2023-09-30T21:33:44;96747.84;;;9.78;100.00
11038;BME280;5572;49.540;11.932;2023-09-30T21:36:12;96752.50;;;9.73;100.00
11038;BME280;5572;49.540;11.932;2023-09-30T21:38:39;96758.16;;;9.71;100.00
11038;BME280;5572;49.540;11.932;2023-09-30T21:41:10;96760.88;;;9.66;100.00
11038;BME280;5572;49.540;11.932;2023-09-30T21:43:37;96748.72;;;9.69;100.00
11038;BME280;5572;49.540;11.932;2023-09-30T21:46:03;96753.09;;;9.60;100.00
11038;BME280;5572;49.540;11.932;2023-09-30T21:48:32;96752.56;;;9.58;100.00
11038;BME280;5572;49.540;11.932;2023-09-30T21:50:59;96747.41;;;9.61;100.00
11038;BME280;5572;49.540;11.932;2023-09-30T21:53:25;96741.72;;;9.68;100.00
11038;BME280;5572;49.540;11.932;2023-09-30T21:55:53;96742.00;;;9.66;100.00
11038;BME280;5572;49.540;11.932;2023-09-30T21:58:19;96741.53;;;9.49;100.00
11038;BME280;5572;49.540;11.932;2023-09-30T22:00:46;96745.53;;;9.57;100.00
11038;BME280;5572;49.540;11.932;2023-09-30T22:03:14;96750.75;;;9.43;100.00
11038;BME280;5572;49.540;11.932;2023-09-30T22:05:44;96758.31;;;9.41;100.00
11038;BME280;5572;49.540;11.932;2023-09-30T22:08:16;96750.44;;;9.50;100.00
11038;BME280;5572;49.540;11.932;2023-09-30T22:10:42;96753.41;;;9.53;100.00
11038;BME280;5572;49.540;11.932;2023-09-30T22:13:10;96760.47;;;9.39;100.00
11038;BME280;5572;49.540;11.932;2023-09-30T22:15:36;96757.75;;;9.44;100.00
11038;BME280;5572;49.540;11.932;2023-09-30T22:18:03;96754.19;;;9.54;100.00
11038;BME280;5572;49.540;11.932;2023-09-30T22:20:30;96753.19;;;9.40;100.00
11038;BME280;5572;49.540;11.932;2023-09-30T22:22:59;96769.97;;;9.27;100.00
11038;BME280;5572;49.540;11.932;2023-09-30T22:25:25;96764.56;;;9.32;100.00
11038;BME280;5572;49.540;11.932;2023-09-30T22:27:52;96777.81;;;9.24;100.00
11038;BME280;5572;49.540;11.932;2023-09-30T22:30:19;96786.72;;;9.19;100.00
11038;BME280;5572;49.540;11.932;2023-09-30T22:32:47;96789.97;;;9.21;100.00
11038;BME280;5572;49.540;11.932;2023-09-30T22:35:16;96794.78;;;9.24;100.00
11038;BME280;5572;49.540;11.932;2023-09-30T22:37:43;96786.72;;;9.19;100.00
11038;BME280;5572;49.540;11.932;2023-09-30T22:40:11;96770.22;;;9.36;100.00
11038;BME280;5572;49.540;11.932;2023-09-30T22:42:38;96782.94;;;9.20;100.00
11038;BME280;5572;49.540;11.932;2023-09-30T22:45:05;96777.59;;;9.10;100.00
11038;BME280;5572;49.540;11.932;2023-09-30T22:47:41;96767.81;;;9.24;100.00
11038;BME280;5572;49.540;11.932;2023-09-30T22:50:10;96779.38;;;9.30;100.00
11038;BME280;5572;49.540;11.932;2023-09-30T22:52:37;96766.22;;;9.23;100.00
11038;BME280;5572;49.540;11.932;2023-09-30T22:55:04;96768.63;;;9.20;100.00
11038;BME280;5572;49.540;11.932;2023-09-30T22:57:32;96773.00;;;9.16;100.00
11038;BME280;5572;49.540;11.932;2023-09-30T22:59:58;96784.13;;;8.89;100.00
11038;BME280;5572;49.540;11.932;2023-09-30T23:02:31;96787.09;;;8.83;100.00
11038;BME280;5572;49.540;11.932;2023-09-30T23:04:58;96797.59;;;8.84;100.00
11038;BME280;5572;49.540;11.932;2023-09-30T23:07:25;96798.16;;;8.76;100.00
11038;BME280;5572;49.540;11.932;2023-09-30T23:09:52;96803.28;;;8.68;100.00
11038;BME280;5572;49.540;11.932;2023-09-30T23:12:18;96801.41;;;8.68;100.00
11038;BME280;5572;49.540;11.932;2023-09-30T23:14:46;96807.31;;;8.70;100.00
11038;BME280;5572;49.540;11.932;2023-09-30T23:17:13;96818.63;;;8.67;100.00
11038;BME280;5572;49.540;11.932;2023-09-30T23:19:40;96819.47;;;8.68;100.00
11038;BME280;5572;49.540;11.932;2023-09-30T23:22:06;96810.28;;;8.74;100.00
11038;BME280;5572;49.540;11.932;2023-09-30T23:24:38;96807.88;;;8.72;100.00
11038;BME280;5572;49.540;11.932;2023-09-30T23:27:05;96808.38;;;8.64;100.00
11038;BME280;5572;49.540;11.932;2023-09-30T23:29:34;96810.28;;;8.64;100.00
11038;BME280;5572;49.540;11.932;2023-09-30T23:32:04;96806.78;;;8.58;100.00
11038;BME280;5572;49.540;11.932;2023-09-30T23:34:31;96808.13;;;8.51;100.00
11038;BME280;5572;49.540;11.932;2023-09-30T23:36:58;96828.63;;;8.37;100.00
11038;BME280;5572;49.540;11.932;2023-09-30T23:39:25;96827.81;;;8.52;100.00
11038;BME280;5572;49.540;11.932;2023-09-30T23:41:52;96827.25;;;8.54;100.00
11038;BME280;5572;49.540;11.932;2023-09-30T23:44:19;96825.94;;;8.47;100.00
11038;BME280;5572;49.540;11.932;2023-09-30T23:46:46;96826.75;;;8.53;100.00
11038;BME280;5572;49.540;11.932;2023-09-30T23:49:16;96823.50;;;8.46;100.00
11038;BME280;5572;49.540;11.932;2023-09-30T23:51:50;96819.47;;;8.38;100.00
11038;BME280;5572;49.540;11.932;2023-09-30T23:54:19;96826.19;;;8.41;100.00
11038;BME280;5572;49.540;11.932;2023-09-30T23:56:46;96829.97;;;8.40;100.00
11038;BME280;5572;49.540;11.932;2023-09-30T23:59:12;96829.41;;;8.38;100.00
